Barcelona, Brazil
Current Conditions -  °F | °C
As of 6:00 PM on Sunday 21 Dec 2014 (Local Time) from SBNT Reporting Station
Clear Clear  
Wind Chill: 27°   Ceiling: Unl
Heat Index: 29°   Visibility: 6mi
Dew Point: 21°   Wind: 9mph
Humidity: 70%   Direction: 120°ESE
Pressure: 29.91"   Gusts: NA
Location:  5.95°S, 35.93°W
Report Text: SBNT 212100Z 12008KT CAVOK 27/21 Q1013
Loading
Personal Weather Stations






























Interactive Weather Map New forecast layout! Learn more

10-Day Weather Forecast

Advertisements
Track Severe Weather on mobile